Time;durP1;ratioP1;P1;durP2;ratioP2;P2;SDS_P1;SDS_P2;PMS_P1;PMS_P2;Temp;Humidity;BMP_temperature;BMP_pressure;BME280_temperature;BME280_humidity;BME280_pressure;Samples;Min_cycle;Max_cycle;Signal;HPM_P1;HPM_P2
2021/11/01 00:02:04;;;;;;;0.40;0.30;;;16.00;99.90;;;;;;5089583;28;20378;-71
2021/11/01 00:04:30;;;;;;;0.40;0.30;;;16.00;99.90;;;;;;5089967;28;20382;-72
2021/11/01 00:06:55;;;;;;;0.40;0.30;;;15.80;99.90;;;;;;5088955;28;20393;-73
2021/11/01 00:09:21;;;;;;;0.40;0.30;;;15.60;99.90;;;;;;5090209;28;20463;-72
2021/11/01 00:11:47;;;;;;;0.40;0.20;;;15.50;99.90;;;;;;5089514;28;20746;-72
2021/11/01 00:14:13;;;;;;;0.40;0.20;;;15.40;99.90;;;;;;5089351;28;20460;-73
2021/11/01 00:16:40;;;;;;;0.40;0.30;;;15.40;99.90;;;;;;5089762;28;20424;-72
2021/11/01 00:19:06;;;;;;;0.40;0.20;;;15.20;99.90;;;;;;5089259;28;20388;-72
2021/11/01 00:21:32;;;;;;;0.40;0.30;;;15.00;99.90;;;;;;5090012;28;20385;-71
2021/11/01 00:23:58;;;;;;;0.40;0.20;;;15.00;99.90;;;;;;5087854;28;20389;-72
2021/11/01 00:26:23;;;;;;;0.40;0.20;;;15.00;99.90;;;;;;5089831;28;20406;-72
2021/11/01 00:28:49;;;;;;;0.40;0.20;;;14.90;99.90;;;;;;5090039;28;20374;-71
2021/11/01 00:31:15;;;;;;;0.40;0.30;;;15.00;99.90;;;;;;5088687;28;21024;-71
2021/11/01 00:33:41;;;;;;;0.40;0.20;;;14.80;99.90;;;;;;5089703;28;20378;-71
2021/11/01 00:36:08;;;;;;;0.40;0.30;;;14.80;99.90;;;;;;5089166;28;20386;-72
2021/11/01 00:38:34;;;;;;;0.40;0.30;;;15.00;99.90;;;;;;5089615;28;20443;-72
2021/11/01 00:41:00;;;;;;;0.40;0.30;;;15.00;99.90;;;;;;5086036;28;20386;-72
2021/11/01 00:43:26;;;;;;;0.40;0.20;;;15.00;99.90;;;;;;5089839;28;20389;-72
2021/11/01 00:45:52;;;;;;;0.40;0.20;;;15.10;99.90;;;;;;5089469;28;20777;-72
2021/11/01 00:48:17;;;;;;;0.40;0.30;;;15.30;99.90;;;;;;5088892;28;20382;-72
2021/11/01 00:50:45;;;;;;;0.50;0.50;;;15.20;99.90;;;;;;5089219;28;20497;-72
2021/11/01 00:53:11;;;;;;;0.40;0.20;;;15.30;99.90;;;;;;5024061;28;1832961;-72
2021/11/01 00:55:48;;;;;;;0.40;0.30;;;15.30;99.90;;;;;;5089107;28;20911;-72
2021/11/01 00:58:15;;;;;;;0.40;0.20;;;15.20;99.90;;;;;;5089757;28;20374;-73
2021/11/01 01:00:41;;;;;;;0.40;0.20;;;15.10;99.90;;;;;;5090506;28;20753;-73
2021/11/01 01:03:09;;;;;;;0.40;0.30;;;15.10;99.90;;;;;;5089410;28;20843;-72
2021/11/01 01:05:34;;;;;;;0.40;0.20;;;15.10;99.90;;;;;;5090517;28;20780;-72
2021/11/01 01:08:00;;;;;;;0.40;0.30;;;14.90;99.90;;;;;;5088477;28;20391;-73
2021/11/01 01:10:25;;;;;;;0.40;0.30;;;14.80;99.90;;;;;;5090318;28;20715;-73
2021/11/01 01:12:51;;;;;;;0.40;0.30;;;14.80;99.90;;;;;;5090393;28;20454;-72
2021/11/01 01:15:24;;;;;;;0.40;0.20;;;14.70;99.90;;;;;;5089485;28;20470;-73
2021/11/01 01:17:50;;;;;;;0.40;0.30;;;14.60;99.90;;;;;;5090485;28;20504;-73
2021/11/01 01:20:19;;;;;;;0.40;0.30;;;14.60;99.90;;;;;;5089434;28;21133;-72
2021/11/01 01:22:46;;;;;;;0.40;0.30;;;14.60;99.90;;;;;;5090552;28;20382;-72
2021/11/01 01:25:18;;;;;;;0.40;0.20;;;14.70;99.90;;;;;;5089773;28;20457;-72
2021/11/01 01:27:44;;;;;;;0.40;0.30;;;14.90;99.90;;;;;;5090278;28;20374;-68
2021/11/01 01:30:11;;;;;;;0.40;0.20;;;15.20;99.90;;;;;;5089018;28;20453;-70
2021/11/01 01:32:38;;;;;;;0.40;0.20;;;15.30;99.90;;;;;;5089783;28;20402;-72
2021/11/01 01:35:04;;;;;;;0.40;0.20;;;15.20;99.90;;;;;;5089123;28;20421;-72
2021/11/01 01:37:30;;;;;;;0.40;0.40;;;15.10;99.90;;;;;;5089954;28;20386;-72
2021/11/01 01:39:55;;;;;;;0.40;0.20;;;15.10;99.90;;;;;;5089668;28;20381;-71
2021/11/01 01:42:21;;;;;;;0.40;0.30;;;15.10;99.90;;;;;;5088816;28;20382;-74
2021/11/01 01:44:46;;;;;;;0.40;0.20;;;15.00;99.90;;;;;;5090225;28;20394;-72
2021/11/01 01:47:12;;;;;;;0.40;0.30;;;14.90;99.90;;;;;;5088784;28;20779;-72
2021/11/01 01:49:38;;;;;;;0.40;0.20;;;14.80;99.90;;;;;;5089642;28;20389;-73
2021/11/01 01:52:04;;;;;;;0.40;0.20;;;14.60;99.90;;;;;;5090415;28;20898;-75
2021/11/01 01:54:30;;;;;;;0.40;0.30;;;14.20;99.90;;;;;;5093716;28;20378;-70
2021/11/01 01:56:56;;;;;;;0.40;0.20;;;13.70;99.90;;;;;;5093401;28;20427;-71
2021/11/01 01:59:23;;;;;;;0.40;0.20;;;13.30;99.90;;;;;;5092626;28;20456;-72
2021/11/01 02:01:50;;;;;;;0.40;0.20;;;13.20;99.90;;;;;;5093507;28;20374;-72
2021/11/01 02:04:21;;;;;;;0.40;0.30;;;13.00;99.90;;;;;;5091385;28;20851;-72
2021/11/01 02:07:07;;;;;;;0.40;0.30;;;12.80;99.90;;;;;;5093561;28;20431;-74
2021/11/01 02:10:00;;;;;;;0.40;0.20;;;12.70;99.90;;;;;;5091987;28;20814;-73
2021/11/01 02:12:33;;;;;;;0.40;0.20;;;12.80;99.90;;;;;;5092453;28;20463;-76
2021/11/01 02:15:07;;;;;;;0.40;0.30;;;12.70;99.90;;;;;;5092912;28;20431;-75
2021/11/01 02:17:34;;;;;;;0.40;0.20;;;12.70;99.90;;;;;;5091858;28;20385;-74
2021/11/01 02:20:12;;;;;;;0.40;0.20;;;12.70;99.90;;;;;;5092974;28;20758;-74
2021/11/01 02:22:54;;;;;;;0.40;0.20;;;12.60;99.90;;;;;;5093297;28;20469;-74
2021/11/01 02:25:23;;;;;;;0.40;0.20;;;12.60;99.90;;;;;;5092119;28;20449;-75
2021/11/01 02:27:51;;;;;;;0.40;0.20;;;12.60;99.90;;;;;;5091727;28;20722;-75
2021/11/01 02:30:19;;;;;;;0.40;0.30;;;12.70;99.90;;;;;;5091152;28;20385;-74
2021/11/01 02:32:45;;;;;;;0.40;0.30;;;12.60;99.90;;;;;;5092613;28;20406;-73
2021/11/01 02:35:11;;;;;;;0.40;0.20;;;12.60;99.90;;;;;;5092158;28;20503;-74
2021/11/01 02:37:40;;;;;;;0.40;0.20;;;12.60;99.90;;;;;;5092522;28;20866;-74
2021/11/01 02:40:09;;;;;;;0.40;0.30;;;12.70;99.90;;;;;;5092071;28;20382;-73
2021/11/01 02:42:35;;;;;;;0.40;0.20;;;12.60;99.90;;;;;;5091196;28;20422;-73
2021/11/01 02:45:09;;;;;;;0.40;0.20;;;12.60;99.90;;;;;;5092597;28;20445;-73
2021/11/01 02:47:35;;;;;;;0.40;0.20;;;12.60;99.90;;;;;;5092786;28;20383;-72
2021/11/01 02:50:05;;;;;;;0.40;0.30;;;12.60;99.90;;;;;;5092118;28;20870;-73
2021/11/01 02:52:31;;;;;;;0.40;0.20;;;12.60;99.90;;;;;;5092439;28;20414;-73
2021/11/01 02:54:57;;;;;;;0.40;0.20;;;12.70;99.90;;;;;;5092555;28;20382;-75
2021/11/01 02:57:23;;;;;;;0.40;0.20;;;12.40;99.90;;;;;;5091629;28;20382;-74
2021/11/01 02:59:49;;;;;;;0.40;0.30;;;12.30;99.90;;;;;;5092162;28;20417;-75
2021/11/01 03:02:16;;;;;;;0.40;0.30;;;12.10;99.90;;;;;;5091035;28;20414;-73
2021/11/01 03:04:42;;;;;;;0.40;0.30;;;12.00;99.90;;;;;;5091274;28;20393;-74
2021/11/01 03:07:09;;;;;;;0.40;0.20;;;12.00;99.90;;;;;;5091297;28;20735;-75
2021/11/01 03:09:39;;;;;;;0.40;0.30;;;12.00;99.90;;;;;;5092285;28;20374;-73
2021/11/01 03:12:08;;;;;;;0.40;0.30;;;11.90;99.90;;;;;;5091301;28;20743;-75
2021/11/01 03:14:40;;;;;;;0.40;0.20;;;12.10;99.90;;;;;;5092018;28;20421;-74
2021/11/01 03:17:08;;;;;;;0.40;0.20;;;12.10;99.90;;;;;;5091368;28;20377;-74
2021/11/01 03:19:38;;;;;;;0.40;0.30;;;11.90;99.90;;;;;;5092078;28;20385;-74
2021/11/01 03:22:06;;;;;;;0.40;0.20;;;12.00;99.90;;;;;;5091442;28;20489;-75
2021/11/01 03:24:38;;;;;;;0.40;0.20;;;12.00;99.90;;;;;;5091445;28;20382;-74
2021/11/01 03:27:06;;;;;;;0.40;0.20;;;12.00;99.90;;;;;;5090501;28;20401;-74
2021/11/01 03:29:34;;;;;;;0.40;0.30;;;12.00;99.90;;;;;;5091737;28;20460;-73
2021/11/01 03:32:03;;;;;;;0.40;0.20;;;12.00;99.90;;;;;;5091586;28;20402;-72
2021/11/01 03:34:31;;;;;;;0.40;0.20;;;11.90;99.90;;;;;;5089452;28;20467;-72
2021/11/01 03:37:04;;;;;;;0.40;0.30;;;11.90;99.90;;;;;;5091356;28;20778;-73
2021/11/01 03:39:31;;;;;;;0.40;0.20;;;12.00;99.90;;;;;;5092106;28;20427;-73
2021/11/01 03:41:56;;;;;;;0.40;0.20;;;12.00;99.90;;;;;;5091980;28;20381;-72
2021/11/01 03:44:28;;;;;;;0.40;0.30;;;12.00;99.90;;;;;;5091470;28;20903;-71
2021/11/01 03:46:57;;;;;;;0.40;0.20;;;12.00;99.90;;;;;;5091659;28;20413;-69
2021/11/01 03:49:25;;;;;;;0.40;0.20;;;11.90;99.90;;;;;;5073209;28;20767;-70
2021/11/01 03:52:04;;;;;;;0.40;0.20;;;11.90;99.90;;;;;;5091428;28;20414;-72
2021/11/01 03:54:30;;;;;;;0.40;0.20;;;11.80;99.90;;;;;;5091165;28;20417;-72
2021/11/01 03:56:57;;;;;;;0.40;0.20;;;11.80;99.90;;;;;;5091587;28;20772;-72
2021/11/01 03:59:23;;;;;;;0.40;0.30;;;11.80;99.90;;;;;;5091069;28;20801;-72
2021/11/01 04:01:50;;;;;;;0.40;0.20;;;11.70;99.90;;;;;;5091302;28;20381;-71
2021/11/01 04:04:16;;;;;;;0.40;0.20;;;11.70;99.90;;;;;;5090843;28;20390;-71
2021/11/01 04:06:42;;;;;;;0.40;0.20;;;11.60;99.90;;;;;;5091705;28;20370;-72
2021/11/01 04:09:10;;;;;;;0.40;0.30;;;11.60;99.90;;;;;;5090807;28;20370;-72
2021/11/01 04:11:43;;;;;;;0.40;0.20;;;11.50;99.90;;;;;;5091305;28;20396;-73
2021/11/01 04:14:15;;;;;;;0.40;0.20;;;11.50;99.90;;;;;;5090583;28;20370;-73
2021/11/01 04:16:43;;;;;;;0.40;0.20;;;11.40;99.90;;;;;;5091409;28;20461;-70
2021/11/01 04:21:35;;;;;;;0.40;0.20;;;11.30;99.90;;;;;;5091413;28;20378;-70
2021/11/01 04:24:01;;;;;;;0.40;0.20;;;11.40;99.90;;;;;;5090973;28;20818;-70
2021/11/01 04:26:27;;;;;;;0.40;0.20;;;11.20;99.90;;;;;;5090733;28;20773;-70
2021/11/01 04:28:54;;;;;;;0.40;0.20;;;11.20;99.90;;;;;;5091128;28;20381;-70
2021/11/01 04:31:26;;;;;;;0.40;0.20;;;11.20;99.90;;;;;;5090545;28;20398;-71
2021/11/01 04:33:55;;;;;;;0.40;0.30;;;11.20;99.90;;;;;;5091200;28;20414;-71
2021/11/01 04:36:20;;;;;;;0.40;0.20;;;11.20;99.90;;;;;;5090677;28;20481;-71
2021/11/01 04:39:01;;;;;;;0.40;0.20;;;11.20;99.90;;;;;;5091314;28;20778;-71
2021/11/01 04:41:39;;;;;;;0.40;0.20;;;11.20;99.90;;;;;;5090483;28;20987;-71
2021/11/01 04:54:47;;;;;;;0.40;0.20;;;10.90;99.90;;;;;;5091073;28;20397;-70
2021/11/01 04:57:13;;;;;;;0.40;0.20;;;10.90;99.90;;;;;;5090474;28;20378;-71
2021/11/01 04:59:39;;;;;;;0.40;0.20;;;10.90;99.90;;;;;;5089565;28;20780;-71
2021/11/01 05:02:05;;;;;;;0.40;0.20;;;10.90;99.90;;;;;;5091265;28;20413;-69
2021/11/01 05:04:34;;;;;;;0.40;0.20;;;10.80;99.90;;;;;;5090547;28;20382;-71
2021/11/01 05:07:02;;;;;;;0.40;0.20;;;10.90;99.90;;;;;;5090019;28;20435;-71
2021/11/01 05:17:17;;;;;;;0.40;0.20;;;10.80;99.90;;;;;;5090800;28;20417;-71
2021/11/01 05:19:55;;;;;;;0.40;0.30;;;10.70;99.90;;;;;;5091061;28;20394;-71
2021/11/01 05:25:18;;;;;;;0.40;0.20;;;10.60;99.90;;;;;;5090790;28;20421;-70
2021/11/01 05:28:09;;;;;;;0.40;0.20;;;10.50;99.90;;;;;;5094146;28;20702;-71
2021/11/01 05:30:42;;;;;;;0.40;0.20;;;10.40;99.90;;;;;;5094360;28;20453;-71
2021/11/01 05:35:40;;;;;;;0.40;0.20;;;10.40;99.90;;;;;;5094874;28;20393;-69
2021/11/01 05:38:06;;;;;;;0.40;0.20;;;10.40;99.90;;;;;;5093370;28;20877;-70
2021/11/01 05:40:34;;;;;;;0.40;0.20;;;10.40;99.90;;;;;;5094016;28;20393;-70
2021/11/01 05:43:01;;;;;;;0.50;0.50;;;10.50;99.90;;;;;;5094564;28;20370;-70
2021/11/01 05:45:27;;;;;;;0.40;0.20;;;10.50;99.90;;;;;;5093920;28;20374;-71
2021/11/01 05:47:58;;;;;;;0.40;0.20;;;10.40;99.90;;;;;;5094429;28;20385;-71
2021/11/01 05:50:26;;;;;;;0.40;0.20;;;10.30;99.90;;;;;;5094001;28;20440;-73
2021/11/01 05:52:56;;;;;;;0.40;0.20;;;10.40;99.90;;;;;;5093930;28;20900;-73
2021/11/01 06:00:57;;;;;;;0.40;0.20;;;10.20;99.90;;;;;;5088795;28;20385;-72
2021/11/01 06:16:05;;;;;;;0.40;0.30;;;10.00;99.90;;;;;;5081347;28;20393;-70
2021/11/01 06:18:37;;;;;;;0.40;0.20;;;9.90;99.90;;;;;;5093202;28;20378;-71
2021/11/01 06:21:05;;;;;;;0.40;0.20;;;9.80;99.90;;;;;;5094008;28;20719;-70
2021/11/01 06:23:33;;;;;;;0.40;0.30;;;9.80;99.90;;;;;;5093187;28;20370;-71
2021/11/01 06:25:59;;;;;;;0.40;0.20;;;9.80;99.90;;;;;;5093850;28;20414;-71
2021/11/01 06:28:25;;;;;;;0.40;0.30;;;9.70;99.90;;;;;;5093067;28;20709;-71
2021/11/01 06:31:03;;;;;;;0.40;0.20;;;9.80;99.90;;;;;;5093578;28;20386;-71
2021/11/01 06:44:23;;;;;;;0.40;0.20;;;9.80;99.90;;;;;;5093310;28;20432;-71
2021/11/01 07:16:43;;;;;;;1.20;0.80;;;9.70;99.90;;;;;;5091801;28;20377;-71
2021/11/01 07:25:42;;;;;;;0.40;0.20;;;9.80;99.90;;;;;;5029158;28;20388;-70
2021/11/01 08:22:57;;;;;;;0.40;0.30;;;9.90;99.90;;;;;;5090367;28;20385;-71
2021/11/01 08:25:43;;;;;;;0.40;0.20;;;10.00;99.90;;;;;;5090395;28;20382;-73
2021/11/01 08:41:34;;;;;;;0.40;0.20;;;10.10;99.90;;;;;;5090434;28;20443;-71
2021/11/01 08:47:07;;;;;;;0.40;0.30;;;10.10;99.90;;;;;;5088516;28;20648;-72
2021/11/01 09:06:06;;;;;;;0.40;0.30;;;10.20;99.90;;;;;;5092344;28;20418;-71
2021/11/01 09:24:34;;;;;;;0.40;0.30;;;10.50;99.90;;;;;;5094699;28;20397;-70
2021/11/01 09:27:07;;;;;;;0.40;0.20;;;10.50;99.90;;;;;;5094767;28;20374;-71
2021/11/01 09:37:57;;;;;;;0.40;0.40;;;10.60;99.90;;;;;;5093642;28;20874;-73
2021/11/01 09:42:59;;;;;;;0.40;0.20;;;10.70;99.90;;;;;;5083657;28;20393;-71
2021/11/01 09:45:29;;;;;;;1.10;1.00;;;10.80;99.90;;;;;;5091836;28;20366;-71
2021/11/01 09:47:55;;;;;;;0.60;0.60;;;10.90;99.90;;;;;;5089203;28;20414;-69
2021/11/01 09:50:23;;;;;;;0.50;0.40;;;10.90;99.90;;;;;;5090956;28;20385;-68
2021/11/01 09:52:57;;;;;;;0.50;0.40;;;11.00;99.90;;;;;;5090616;28;20432;-70
2021/11/01 10:01:06;;;;;;;0.40;0.20;;;11.10;99.90;;;;;;5074105;28;20370;-70
2021/11/01 10:03:39;;;;;;;0.40;0.20;;;11.00;99.90;;;;;;5090086;28;20978;-70
2021/11/01 10:06:06;;;;;;;0.40;0.30;;;11.10;99.90;;;;;;5090684;28;20424;-70
2021/11/01 10:08:33;;;;;;;0.40;0.30;;;11.00;99.90;;;;;;5090782;28;20370;-71
2021/11/01 10:11:00;;;;;;;0.40;0.25;;;11.10;99.90;;;;;;5091050;28;20366;-70
2021/11/01 10:13:28;;;;;;;0.40;0.30;;;11.30;99.90;;;;;;5090249;28;20853;-69
2021/11/01 10:18:49;;;;;;;0.40;0.30;;;11.40;99.90;;;;;;5090888;28;20503;-68
2021/11/01 10:21:18;;;;;;;0.40;0.20;;;11.40;99.90;;;;;;5091427;28;20420;-69
2021/11/01 10:23:50;;;;;;;0.40;0.20;;;11.50;99.90;;;;;;5089809;28;20868;-69
2021/11/01 10:26:21;;;;;;;0.40;0.20;;;11.50;99.90;;;;;;5091191;28;20374;-68
2021/11/01 10:28:51;;;;;;;0.40;0.20;;;11.70;99.90;;;;;;5089462;28;20458;-68
2021/11/01 10:31:23;;;;;;;0.40;0.30;;;11.70;99.90;;;;;;5091136;28;20393;-68
2021/11/01 10:34:03;;;;;;;0.40;0.30;;;11.70;99.90;;;;;;5090104;28;20390;-68
2021/11/01 10:36:31;;;;;;;0.40;0.20;;;11.60;99.90;;;;;;5091121;28;20412;-68
2021/11/01 10:39:07;;;;;;;0.40;0.30;;;11.60;99.90;;;;;;5090504;28;20374;-69
2021/11/01 10:42:03;;;;;;;0.40;0.20;;;11.60;99.90;;;;;;5090308;28;20411;-68
2021/11/01 10:44:48;;;;;;;0.40;0.20;;;11.50;99.90;;;;;;5090421;28;20712;-68
2021/11/01 11:12:08;;;;;;;0.40;0.20;;;11.60;99.90;;;;;;5090692;28;20405;-68
2021/11/01 11:14:58;;;;;;;0.40;0.30;;;11.60;99.90;;;;;;5091953;28;20703;-68
2021/11/01 11:31:21;;;;;;;0.40;0.20;;;11.60;99.90;;;;;;5068283;28;20386;-69
2021/11/01 11:40:07;;;;;;;0.40;0.20;;;11.50;99.90;;;;;;5080168;28;20780;-69
2021/11/01 11:50:45;;;;;;;0.40;0.30;;;11.80;99.90;;;;;;5084972;28;20473;-72
2021/11/01 11:53:16;;;;;;;0.40;0.40;;;11.80;99.90;;;;;;5088405;28;20414;-72
2021/11/01 11:55:45;;;;;;;0.40;0.30;;;11.80;99.90;;;;;;5089000;28;20385;-71
2021/11/01 11:58:14;;;;;;;0.40;0.20;;;11.70;99.90;;;;;;5071342;28;20433;-71
2021/11/01 12:00:41;;;;;;;0.40;0.20;;;11.70;99.90;;;;;;5088735;28;20449;-72
2021/11/01 12:03:16;;;;;;;0.40;0.20;;;11.60;99.90;;;;;;5086779;28;20382;-72
2021/11/01 12:05:58;;;;;;;0.40;0.20;;;11.60;99.90;;;;;;5087937;28;20384;-71
2021/11/01 12:14:35;;;;;;;0.40;0.20;;;11.70;99.90;;;;;;5089199;28;20444;-71
2021/11/01 12:19:16;;;;;;;0.40;0.30;;;11.90;99.90;;;;;;5088426;28;20434;-72
2021/11/01 12:21:48;;;;;;;0.40;0.20;;;12.10;99.90;;;;;;5088312;28;20420;-72
2021/11/01 12:24:24;;;;;;;0.40;0.20;;;12.10;99.90;;;;;;5088930;28;20385;-71
2021/11/01 12:27:01;;;;;;;0.40;0.20;;;12.20;99.90;;;;;;5088494;28;20374;-71
2021/11/01 12:29:26;;;;;;;0.40;0.30;;;12.20;99.90;;;;;;5089110;28;20413;-71
2021/11/01 12:32:01;;;;;;;0.40;0.23;;;12.40;99.90;;;;;;5078646;28;20443;-71
2021/11/01 12:34:26;;;;;;;0.40;0.30;;;12.70;99.90;;;;;;5090806;28;20398;-71
2021/11/01 12:58:25;;;;;;;0.40;0.30;;;13.70;99.90;;;;;;5070445;28;20371;-72
2021/11/01 13:00:51;;;;;;;0.40;0.30;;;13.40;99.90;;;;;;5069968;28;20380;-71
2021/11/01 13:03:21;;;;;;;0.40;0.30;;;13.60;99.90;;;;;;5070737;28;20391;-72
2021/11/01 13:05:54;;;;;;;0.40;0.30;;;13.80;99.90;;;;;;5069866;28;20395;-72
2021/11/01 13:08:27;;;;;;;0.40;0.40;;;14.20;99.90;;;;;;5070612;28;20384;-71
2021/11/01 13:10:57;;;;;;;0.40;0.20;;;14.20;99.90;;;;;;5070240;28;20376;-72
2021/11/01 13:19:05;;;;;;;0.40;0.20;;;13.40;99.90;;;;;;5069995;28;20382;-72
2021/11/01 13:21:36;;;;;;;0.50;0.40;;;13.40;99.90;;;;;;5070554;28;20395;-72
2021/11/01 13:24:06;;;;;;;0.40;0.30;;;13.50;99.90;;;;;;5069742;28;20394;-72
2021/11/01 13:36:49;;;;;;;0.40;0.20;;;14.30;99.90;;;;;;5070053;28;20732;-73
2021/11/01 13:39:25;;;;;;;0.40;0.30;;;14.10;99.90;;;;;;5070608;28;20384;-73
2021/11/01 13:41:54;;;;;;;0.40;0.20;;;14.00;99.90;;;;;;5069973;28;20432;-73
2021/11/01 13:44:25;;;;;;;0.40;0.20;;;14.10;99.90;;;;;;5070564;28;20452;-73
2021/11/01 13:47:02;;;;;;;0.40;0.30;;;14.20;99.90;;;;;;5071202;28;20419;-73
2021/11/01 13:49:31;;;;;;;0.40;0.20;;;14.00;99.90;;;;;;5094116;28;20870;-72
2021/11/01 13:52:41;;;;;;;0.40;0.30;;;13.70;99.90;;;;;;5093632;28;20453;-73
2021/11/01 13:55:17;;;;;;;0.40;0.20;;;13.60;99.90;;;;;;5093571;28;20382;-73
2021/11/01 13:57:53;;;;;;;0.60;0.60;;;13.50;99.90;;;;;;5094826;28;20869;-73
2021/11/01 14:11:58;;;;;;;0.40;0.30;;;13.10;99.90;;;;;;5037658;28;20875;-73
2021/11/01 14:30:41;;;;;;;0.40;0.30;;;12.90;99.90;;;;;;5093212;28;20745;-73
2021/11/01 14:33:25;;;;;;;0.40;0.20;;;12.80;99.90;;;;;;5092608;28;20406;-72
2021/11/01 15:00:38;;;;;;;0.40;0.30;;;12.50;99.90;;;;;;5090422;28;20389;-72
2021/11/01 15:13:39;;;;;;;0.40;0.20;;;12.20;99.90;;;;;;5092411;28;20435;-72
2021/11/01 15:16:25;;;;;;;2.60;0.80;;;12.10;99.90;;;;;;5091471;28;20374;-72
2021/11/01 15:21:28;;;;;;;0.40;0.20;;;12.00;99.90;;;;;;5091931;28;20547;-72
2021/11/01 15:39:41;;;;;;;0.40;0.30;;;12.00;99.90;;;;;;5092481;28;20424;-73
2021/11/01 16:20:10;;;;;;;0.40;0.20;;;11.60;99.90;;;;;;5091032;28;20477;-72
2021/11/01 16:22:40;;;;;;;0.40;0.20;;;11.70;99.90;;;;;;5076732;28;20551;-73
2021/11/01 16:25:06;;;;;;;0.40;0.30;;;11.80;99.90;;;;;;5094854;28;20775;-72
2021/11/01 16:27:42;;;;;;;0.40;0.20;;;11.90;99.90;;;;;;5111276;28;20377;-72
2021/11/01 16:30:17;;;;;;;0.40;0.20;;;12.10;99.90;;;;;;5110406;28;20790;-70
2021/11/01 16:32:45;;;;;;;0.45;0.38;;;12.10;99.90;;;;;;5111446;28;20494;-71
2021/11/01 16:35:16;;;;;;;0.40;0.30;;;12.20;99.90;;;;;;5110393;28;20408;-72
2021/11/01 16:40:43;;;;;;;0.40;0.30;;;12.20;99.90;;;;;;5099033;28;20444;-72
2021/11/01 16:43:15;;;;;;;0.40;0.30;;;12.00;99.90;;;;;;5090250;28;20393;-72
2021/11/01 16:45:42;;;;;;;0.40;0.20;;;12.00;99.90;;;;;;5090923;28;20382;-71
2021/11/01 16:48:08;;;;;;;0.40;0.30;;;12.00;99.90;;;;;;5090175;28;20382;-72
2021/11/01 16:50:35;;;;;;;0.40;0.25;;;11.90;99.90;;;;;;5089444;28;20386;-72
2021/11/01 16:53:01;;;;;;;0.40;0.20;;;11.90;99.90;;;;;;5090311;28;20850;-72
2021/11/01 16:55:34;;;;;;;0.60;0.60;;;11.80;99.90;;;;;;5092159;28;20410;-71
2021/11/01 16:58:08;;;;;;;0.40;0.30;;;11.70;99.90;;;;;;5089607;28;20384;-72
2021/11/01 17:00:38;;;;;;;0.40;0.20;;;11.80;99.90;;;;;;5095623;28;20396;-72
2021/11/01 17:03:44;;;;;;;0.40;0.20;;;11.70;99.90;;;;;;5110282;28;20387;-72
2021/11/01 17:06:05;;;;;;;0.40;0.30;;;11.60;99.90;;;;;;5090455;28;20553;-73
2021/11/01 17:30:15;;;;;;;0.40;0.20;;;10.90;99.90;;;;;;5099374;28;20461;-72
2021/11/01 17:36:14;;;;;;;0.40;0.20;;;10.40;99.90;;;;;;5098246;28;20389;-73
2021/11/01 18:37:51;;;;;;;0.40;0.20;;;9.40;99.90;;;;;;5092175;28;20991;-70
2021/11/01 18:53:42;;;;;;;0.50;0.50;;;9.20;99.90;;;;;;5092392;28;20418;-70
2021/11/01 18:56:11;;;;;;;0.40;0.30;;;9.00;99.90;;;;;;5091721;28;20374;-70
2021/11/01 18:58:43;;;;;;;0.40;0.30;;;8.80;99.90;;;;;;5092630;28;20477;-70
2021/11/01 19:01:12;;;;;;;0.40;0.23;;;8.80;99.90;;;;;;5091923;28;20382;-70
2021/11/01 19:03:42;;;;;;;0.40;0.30;;;8.80;99.90;;;;;;5092507;28;20377;-70
2021/11/01 19:06:35;;;;;;;0.40;0.20;;;8.80;99.90;;;;;;5091807;28;20414;-70
2021/11/01 19:09:26;;;;;;;0.40;0.20;;;8.90;99.90;;;;;;5092139;28;20470;-71
2021/11/01 20:04:57;;;;;;;0.40;0.20;;;8.70;99.90;;;;;;5089055;28;20416;-71
2021/11/01 20:15:34;;;;;;;0.40;0.40;;;8.40;99.90;;;;;;5090144;28;20726;-71
2021/11/01 21:25:21;;;;;;;0.40;0.30;;;8.10;99.90;;;;;;5090480;28;20431;-71
2021/11/01 21:27:48;;;;;;;0.40;0.30;;;8.20;99.90;;;;;;5087559;28;20397;-71
2021/11/01 21:30:15;;;;;;;0.40;0.20;;;8.00;99.90;;;;;;5090366;28;20873;-71
2021/11/01 21:32:41;;;;;;;0.40;0.30;;;8.00;99.90;;;;;;5091410;28;20445;-71
2021/11/01 21:35:18;;;;;;;0.40;0.30;;;8.20;99.90;;;;;;5091354;28;20386;-71
2021/11/01 21:37:46;;;;;;;0.40;0.20;;;8.10;99.90;;;;;;5091531;28;20374;-71
2021/11/01 21:40:14;;;;;;;0.40;0.40;;;8.00;99.90;;;;;;5090716;28;20401;-71
2021/11/01 21:42:42;;;;;;;0.40;0.20;;;8.00;99.90;;;;;;5091258;28;20390;-70
2021/11/01 21:45:09;;;;;;;0.40;0.20;;;8.00;99.90;;;;;;5090446;28;20382;-71
2021/11/01 21:47:35;;;;;;;0.40;0.30;;;8.00;99.90;;;;;;5090302;28;20903;-70
2021/11/01 21:50:03;;;;;;;0.40;0.30;;;7.90;99.90;;;;;;5090829;28;20381;-70
2021/11/01 21:52:29;;;;;;;0.40;0.40;;;7.90;99.90;;;;;;5090099;28;20437;-70
2021/11/01 21:54:58;;;;;;;0.50;0.40;;;7.90;99.90;;;;;;5090731;28;20851;-69
2021/11/01 22:21:18;;;;;;;0.40;0.30;;;7.90;99.90;;;;;;5089819;28;20374;-71
2021/11/01 22:26:24;;;;;;;0.40;0.20;;;8.00;99.90;;;;;;5093538;28;20390;-71
2021/11/01 22:34:32;;;;;;;0.40;0.30;;;8.10;99.90;;;;;;5085956;28;20412;-71
2021/11/01 22:39:54;;;;;;;0.80;0.80;;;8.20;99.90;;;;;;5091806;28;20366;-70
2021/11/01 22:55:55;;;;;;;0.40;0.20;;;8.90;99.90;;;;;;5093063;28;20385;-70
2021/11/01 22:58:23;;;;;;;0.40;0.30;;;9.10;99.90;;;;;;5092767;28;20733;-70
2021/11/01 23:00:54;;;;;;;0.40;0.30;;;9.70;99.90;;;;;;5093102;28;20370;-70
2021/11/01 23:03:31;;;;;;;0.40;0.20;;;10.00;99.90;;;;;;5092677;28;20470;-70
2021/11/01 23:33:00;;;;;;;0.40;0.30;;;10.60;99.90;;;;;;5092438;28;20423;-69
2021/11/01 23:35:26;;;;;;;0.40;0.20;;;10.50;99.90;;;;;;5091823;28;20461;-69
2021/11/01 23:37:52;;;;;;;0.40;0.20;;;10.40;99.90;;;;;;5092589;28;20374;-70
2021/11/01 23:40:17;;;;;;;0.40;0.20;;;10.40;99.90;;;;;;5091489;28;20382;-70
2021/11/01 23:42:43;;;;;;;0.40;0.30;;;10.40;99.90;;;;;;5092390;28;20476;-70
2021/11/01 23:45:09;;;;;;;0.40;0.20;;;10.40;99.90;;;;;;5092528;28;20390;-70
2021/11/01 23:47:34;;;;;;;0.40;0.30;;;10.50;99.90;;;;;;5091281;28;20870;-70
2021/11/01 23:50:00;;;;;;;0.40;0.20;;;10.50;99.90;;;;;;5092227;28;20854;-69
2021/11/01 23:52:26;;;;;;;0.40;0.20;;;10.50;99.90;;;;;;5091103;28;20452;-69
2021/11/01 23:54:52;;;;;;;0.40;0.30;;;10.60;99.90;;;;;;5092126;28;20461;-69
2021/11/01 23:57:20;;;;;;;0.40;0.30;;;10.60;99.90;;;;;;5091119;28;20382;-70
2021/11/01 23:59:47;;;;;;;0.43;0.28;;;10.50;99.90;;;;;;5092183;28;20477;-70
